Terminal Aerodrome Forecast
Issued by NWS

Home | Current Version | Previous Version | Text Only | Print | Product List | Glossary On
Versions: 1 2 3 4 5 6 7 8 9 10 11 12 13 14 15 16 17 18 19 20 21 22 23 24 25 26 27 28 29 30 31 32 33 34 35 36 37 38
000
FTAK31 PANC 242343
TAFAVD
TAF
PAVD 242343Z 2500/2524 00000KT 5SM -RA FEW001 SCT010 OVC060
      TEMPO 2500/2503 2SM -RA BKN005 BKN025
     FM250600 VRB03KT 3SM -RA BR SCT001 BKN006 OVC010
     FM251200 VRB04KT 2SM -RA BR SCT001 BKN004 OVC010
     FM252300 VRB02KT 5SM -RA BR BKN020 OVC040
      AMD LTD TO CLD VIS AND WIND=

USA.gov is the U.S. government's official web portal to all federal, state and local government web resources and services.